sensor_id;sensor_type;location;lat;lon;timestamp;pressure;altitude;pressure_sealevel;temperature;humidity
79006;BME280;69202;45.498;-73.582;2023-07-16T00:00:02;100567.94;;;29.43;42.87
79006;BME280;69202;45.498;-73.582;2023-07-16T00:02:30;100517.53;;;29.10;42.99
79006;BME280;69202;45.498;-73.582;2023-07-16T00:04:56;100546.81;;;29.24;43.33
79006;BME280;69202;45.498;-73.582;2023-07-16T00:07:22;100569.59;;;29.26;42.90
79006;BME280;69202;45.498;-73.582;2023-07-16T00:09:48;100564.53;;;29.20;43.11
79006;BME280;69202;45.498;-73.582;2023-07-16T00:12:14;100379.25;;;28.01;43.37
79006;BME280;69202;45.498;-73.582;2023-07-16T00:14:39;100529.63;;;28.96;43.16
79006;BME280;69202;45.498;-73.582;2023-07-16T00:17:05;100470.97;;;28.50;44.29
79006;BME280;69202;45.498;-73.582;2023-07-16T00:19:31;100550.13;;;29.00;44.06
79006;BME280;69202;45.498;-73.582;2023-07-16T00:21:57;100570.25;;;29.15;43.08
79006;BME280;69202;45.498;-73.582;2023-07-16T00:24:23;100540.44;;;28.89;44.03
79006;BME280;69202;45.498;-73.582;2023-07-16T00:26:49;100460.97;;;28.40;43.74
79006;BME280;69202;45.498;-73.582;2023-07-16T00:29:15;100480.28;;;28.54;44.44
79006;BME280;69202;45.498;-73.582;2023-07-16T00:31:41;100478.34;;;28.54;44.46
79006;BME280;69202;45.498;-73.582;2023-07-16T00:34:07;100423.63;;;28.15;44.13
79006;BME280;69202;45.498;-73.582;2023-07-16T00:36:33;100576.97;;;29.05;44.90
79006;BME280;69202;45.498;-73.582;2023-07-16T00:38:59;100570.75;;;28.99;44.16
79006;BME280;69202;45.498;-73.582;2023-07-16T00:41:25;100461.28;;;28.30;44.38
79006;BME280;69202;45.498;-73.582;2023-07-16T00:43:51;100425.56;;;28.06;44.06
79006;BME280;69202;45.498;-73.582;2023-07-16T00:46:17;100522.53;;;28.56;43.97
79006;BME280;69202;45.498;-73.582;2023-07-16T00:48:43;100572.38;;;28.92;43.90
79006;BME280;69202;45.498;-73.582;2023-07-16T00:51:09;100348.03;;;27.47;44.48
79006;BME280;69202;45.498;-73.582;2023-07-16T00:53:35;100464.50;;;28.23;45.53
79006;BME280;69202;45.498;-73.582;2023-07-16T00:56:01;100533.16;;;28.54;44.82
79006;BME280;69202;45.498;-73.582;2023-07-16T00:58:27;100400.16;;;27.81;44.71
79006;BME280;69202;45.498;-73.582;2023-07-16T01:00:53;100502.03;;;28.34;45.19
79006;BME280;69202;45.498;-73.582;2023-07-16T01:03:19;100572.00;;;28.85;45.26
79006;BME280;69202;45.498;-73.582;2023-07-16T01:05:53;100445.16;;;28.01;44.66
79006;BME280;69202;45.498;-73.582;2023-07-16T01:08:38;100442.38;;;28.01;44.68
79006;BME280;69202;45.498;-73.582;2023-07-16T01:11:07;100544.50;;;28.66;45.51
79006;BME280;69202;45.498;-73.582;2023-07-16T01:13:34;100581.16;;;28.85;45.53
79006;BME280;69202;45.498;-73.582;2023-07-16T01:16:00;100488.91;;;28.26;46.09
79006;BME280;69202;45.498;-73.582;2023-07-16T01:18:26;100535.13;;;28.53;44.89
79006;BME280;69202;45.498;-73.582;2023-07-16T01:20:52;100453.66;;;27.96;44.21
79006;BME280;69202;45.498;-73.582;2023-07-16T01:23:30;100583.31;;;28.80;44.59
79006;BME280;69202;45.498;-73.582;2023-07-16T01:26:24;100595.41;;;28.75;45.24
79006;BME280;69202;45.498;-73.582;2023-07-16T01:31:56;100588.16;;;28.65;46.65
79006;BME280;69202;45.498;-73.582;2023-07-16T01:34:27;100590.94;;;28.65;46.79
79006;BME280;69202;45.498;-73.582;2023-07-16T01:36:54;100506.22;;;28.14;46.22
79006;BME280;69202;45.498;-73.582;2023-07-16T01:39:20;100576.69;;;28.50;45.57
79006;BME280;69202;45.498;-73.582;2023-07-16T01:41:46;100550.47;;;28.42;45.34
79006;BME280;69202;45.498;-73.582;2023-07-16T01:44:12;100603.06;;;28.61;45.16
79006;BME280;69202;45.498;-73.582;2023-07-16T01:46:38;100571.91;;;28.41;46.52
79006;BME280;69202;45.498;-73.582;2023-07-16T01:49:04;100608.31;;;28.62;46.23
79006;BME280;69202;45.498;-73.582;2023-07-16T01:51:30;100519.44;;;28.09;45.70
79006;BME280;69202;45.498;-73.582;2023-07-16T01:53:56;100434.22;;;27.65;46.37
79006;BME280;69202;45.498;-73.582;2023-07-16T01:56:22;100519.97;;;28.19;46.47
79006;BME280;69202;45.498;-73.582;2023-07-16T01:58:47;100562.91;;;28.44;47.03
79006;BME280;69202;45.498;-73.582;2023-07-16T02:01:13;100550.66;;;28.37;47.16
79006;BME280;69202;45.498;-73.582;2023-07-16T02:03:39;100580.47;;;28.62;47.34
79006;BME280;69202;45.498;-73.582;2023-07-16T02:06:05;100382.75;;;27.27;46.93
79006;BME280;69202;45.498;-73.582;2023-07-16T02:08:31;100430.75;;;27.59;47.45
79006;BME280;69202;45.498;-73.582;2023-07-16T02:10:57;100543.25;;;28.32;47.18
79006;BME280;69202;45.498;-73.582;2023-07-16T02:13:23;100530.44;;;28.23;46.49
79006;BME280;69202;45.498;-73.582;2023-07-16T02:15:49;100544.16;;;28.19;46.85
79006;BME280;69202;45.498;-73.582;2023-07-16T02:18:15;100538.88;;;28.09;47.50
79006;BME280;69202;45.498;-73.582;2023-07-16T02:20:41;100519.06;;;28.02;47.10
79006;BME280;69202;45.498;-73.582;2023-07-16T02:23:07;100572.41;;;28.43;46.94
79006;BME280;69202;45.498;-73.582;2023-07-16T02:25:32;100579.63;;;28.53;47.02
79006;BME280;69202;45.498;-73.582;2023-07-16T02:27:58;100541.53;;;28.23;47.41
79006;BME280;69202;45.498;-73.582;2023-07-16T02:30:24;100555.56;;;28.40;47.01
79006;BME280;69202;45.498;-73.582;2023-07-16T02:32:50;100518.34;;;28.27;47.27
79006;BME280;69202;45.498;-73.582;2023-07-16T02:35:17;100536.31;;;28.21;46.86
79006;BME280;69202;45.498;-73.582;2023-07-16T02:37:43;100558.50;;;28.43;47.33
79006;BME280;69202;45.498;-73.582;2023-07-16T02:40:09;100545.53;;;28.30;47.66
79006;BME280;69202;45.498;-73.582;2023-07-16T02:42:35;100479.94;;;27.89;47.26
79006;BME280;69202;45.498;-73.582;2023-07-16T02:45:01;100421.28;;;27.51;47.21
79006;BME280;69202;45.498;-73.582;2023-07-16T02:47:26;100549.00;;;28.44;47.56
79006;BME280;69202;45.498;-73.582;2023-07-16T02:49:52;100429.38;;;27.70;47.06
79006;BME280;69202;45.498;-73.582;2023-07-16T02:52:18;100451.47;;;27.75;46.83
79006;BME280;69202;45.498;-73.582;2023-07-16T02:54:44;100354.94;;;27.10;46.44
79006;BME280;69202;45.498;-73.582;2023-07-16T02:57:10;100419.84;;;27.63;46.77
79006;BME280;69202;45.498;-73.582;2023-07-16T02:59:36;100476.88;;;28.00;46.86
79006;BME280;69202;45.498;-73.582;2023-07-16T03:02:02;100427.28;;;27.76;46.09
79006;BME280;69202;45.498;-73.582;2023-07-16T03:04:28;100414.41;;;27.57;46.36
79006;BME280;69202;45.498;-73.582;2023-07-16T03:06:54;100432.22;;;27.87;46.35
79006;BME280;69202;45.498;-73.582;2023-07-16T03:09:20;100495.00;;;28.28;46.55
79006;BME280;69202;45.498;-73.582;2023-07-16T03:11:46;100398.25;;;27.59;45.80
79006;BME280;69202;45.498;-73.582;2023-07-16T03:14:12;100481.34;;;28.18;46.67
79006;BME280;69202;45.498;-73.582;2023-07-16T03:16:37;100471.47;;;28.03;46.91
79006;BME280;69202;45.498;-73.582;2023-07-16T03:19:03;100542.94;;;28.42;46.73
79006;BME280;69202;45.498;-73.582;2023-07-16T03:21:29;100525.94;;;28.35;46.95
79006;BME280;69202;45.498;-73.582;2023-07-16T03:23:55;100430.88;;;27.76;46.85
79006;BME280;69202;45.498;-73.582;2023-07-16T03:26:21;100543.19;;;28.24;47.39
79006;BME280;69202;45.498;-73.582;2023-07-16T03:28:47;100366.56;;;26.98;46.77
79006;BME280;69202;45.498;-73.582;2023-07-16T03:31:13;100405.72;;;27.42;47.01
79006;BME280;69202;45.498;-73.582;2023-07-16T03:33:39;100430.09;;;27.53;47.62
79006;BME280;69202;45.498;-73.582;2023-07-16T03:36:05;100220.88;;;26.25;47.62
79006;BME280;69202;45.498;-73.582;2023-07-16T03:38:32;100494.88;;;27.94;47.01
79006;BME280;69202;45.498;-73.582;2023-07-16T03:40:57;100529.28;;;28.15;47.46
79006;BME280;69202;45.498;-73.582;2023-07-16T03:43:23;100495.06;;;28.06;47.59
79006;BME280;69202;45.498;-73.582;2023-07-16T03:45:49;100386.72;;;27.35;47.62
79006;BME280;69202;45.498;-73.582;2023-07-16T03:48:15;100518.81;;;28.21;47.60
79006;BME280;69202;45.498;-73.582;2023-07-16T03:50:41;100470.66;;;27.94;47.58
79006;BME280;69202;45.498;-73.582;2023-07-16T03:53:07;100332.19;;;27.08;47.37
79006;BME280;69202;45.498;-73.582;2023-07-16T03:55:33;100533.94;;;28.28;48.10
79006;BME280;69202;45.498;-73.582;2023-07-16T03:57:59;100422.88;;;27.44;48.45
79006;BME280;69202;45.498;-73.582;2023-07-16T04:00:25;100524.88;;;28.23;48.73
79006;BME280;69202;45.498;-73.582;2023-07-16T04:02:51;100438.22;;;27.50;48.60
79006;BME280;69202;45.498;-73.582;2023-07-16T04:05:17;100533.03;;;28.19;49.10
79006;BME280;69202;45.498;-73.582;2023-07-16T04:07:43;100497.81;;;27.97;49.57
79006;BME280;69202;45.498;-73.582;2023-07-16T04:10:09;100520.94;;;28.15;49.49
79006;BME280;69202;45.498;-73.582;2023-07-16T04:12:35;100524.75;;;28.28;50.02
79006;BME280;69202;45.498;-73.582;2023-07-16T04:15:07;100514.25;;;28.25;49.27
79006;BME280;69202;45.498;-73.582;2023-07-16T04:17:34;100167.66;;;26.06;48.97
79006;BME280;69202;45.498;-73.582;2023-07-16T04:20:00;100539.09;;;28.21;50.38
79006;BME280;69202;45.498;-73.582;2023-07-16T04:22:26;100286.78;;;26.73;49.43
79006;BME280;69202;45.498;-73.582;2023-07-16T04:24:52;100304.34;;;26.91;50.49
79006;BME280;69202;45.498;-73.582;2023-07-16T04:27:18;100511.09;;;28.09;50.95
79006;BME280;69202;45.498;-73.582;2023-07-16T04:29:44;100464.88;;;27.73;51.28
79006;BME280;69202;45.498;-73.582;2023-07-16T04:32:10;100429.53;;;27.65;51.54
79006;BME280;69202;45.498;-73.582;2023-07-16T04:34:36;100421.56;;;27.50;51.84
79006;BME280;69202;45.498;-73.582;2023-07-16T04:37:02;100505.16;;;28.02;52.40
79006;BME280;69202;45.498;-73.582;2023-07-16T04:39:28;100330.63;;;26.93;52.44
79006;BME280;69202;45.498;-73.582;2023-07-16T04:41:54;100447.88;;;27.75;52.39
79006;BME280;69202;45.498;-73.582;2023-07-16T04:44:20;100401.91;;;27.38;52.35
79006;BME280;69202;45.498;-73.582;2023-07-16T04:46:46;100238.06;;;26.36;52.96
79006;BME280;69202;45.498;-73.582;2023-07-16T04:49:11;100514.66;;;28.01;52.22
79006;BME280;69202;45.498;-73.582;2023-07-16T04:51:37;100500.09;;;27.95;52.58
79006;BME280;69202;45.498;-73.582;2023-07-16T04:54:03;100401.63;;;27.48;53.19
79006;BME280;69202;45.498;-73.582;2023-07-16T04:56:29;100428.53;;;27.70;52.79
79006;BME280;69202;45.498;-73.582;2023-07-16T04:58:55;100486.84;;;28.01;53.32
79006;BME280;69202;45.498;-73.582;2023-07-16T05:01:21;100369.84;;;27.23;53.43
79006;BME280;69202;45.498;-73.582;2023-07-16T05:03:47;100253.97;;;26.44;53.28
79006;BME280;69202;45.498;-73.582;2023-07-16T05:06:13;100484.56;;;27.94;54.11
79006;BME280;69202;45.498;-73.582;2023-07-16T05:08:39;100442.28;;;27.66;54.25
79006;BME280;69202;45.498;-73.582;2023-07-16T05:11:05;100415.41;;;27.53;54.28
79006;BME280;69202;45.498;-73.582;2023-07-16T05:13:31;100478.31;;;27.88;54.29
79006;BME280;69202;45.498;-73.582;2023-07-16T05:15:56;100479.09;;;27.80;54.60
79006;BME280;69202;45.498;-73.582;2023-07-16T05:18:22;100285.25;;;26.58;54.51
79006;BME280;69202;45.498;-73.582;2023-07-16T05:20:49;100435.25;;;27.38;54.88
79006;BME280;69202;45.498;-73.582;2023-07-16T05:23:15;100479.69;;;27.69;55.29
79006;BME280;69202;45.498;-73.582;2023-07-16T05:25:48;100474.25;;;27.64;54.56
79006;BME280;69202;45.498;-73.582;2023-07-16T05:28:19;100446.72;;;27.45;55.37
79006;BME280;69202;45.498;-73.582;2023-07-16T05:30:45;100419.50;;;27.24;55.52
79006;BME280;69202;45.498;-73.582;2023-07-16T05:33:11;100329.41;;;26.55;55.75
79006;BME280;69202;45.498;-73.582;2023-07-16T05:35:37;100481.41;;;27.56;55.85
79006;BME280;69202;45.498;-73.582;2023-07-16T05:38:03;100347.38;;;26.57;56.32
79006;BME280;69202;45.498;-73.582;2023-07-16T05:40:29;100475.97;;;27.42;56.60
79006;BME280;69202;45.498;-73.582;2023-07-16T05:42:55;100373.75;;;26.68;56.37
79006;BME280;69202;45.498;-73.582;2023-07-16T05:45:21;100339.94;;;26.44;56.69
79006;BME280;69202;45.498;-73.582;2023-07-16T05:47:47;100322.53;;;26.30;56.78
79006;BME280;69202;45.498;-73.582;2023-07-16T05:50:13;100424.13;;;27.07;56.40
79006;BME280;69202;45.498;-73.582;2023-07-16T05:52:38;100474.81;;;27.43;56.16
79006;BME280;69202;45.498;-73.582;2023-07-16T05:55:04;100483.69;;;27.54;56.05
79006;BME280;69202;45.498;-73.582;2023-07-16T05:57:30;100321.34;;;26.44;56.43
79006;BME280;69202;45.498;-73.582;2023-07-16T05:59:56;100243.19;;;25.98;56.50
79006;BME280;69202;45.498;-73.582;2023-07-16T06:02:22;100487.78;;;27.56;56.78
79006;BME280;69202;45.498;-73.582;2023-07-16T06:04:48;100473.06;;;27.56;56.50
79006;BME280;69202;45.498;-73.582;2023-07-16T06:07:14;100409.84;;;27.22;57.00
79006;BME280;69202;45.498;-73.582;2023-07-16T06:09:40;100469.94;;;27.49;57.07
79006;BME280;69202;45.498;-73.582;2023-07-16T06:12:06;100467.78;;;27.46;57.59
79006;BME280;69202;45.498;-73.582;2023-07-16T06:14:31;100419.94;;;27.18;57.38
79006;BME280;69202;45.498;-73.582;2023-07-16T06:16:57;100457.72;;;27.27;57.69
79006;BME280;69202;45.498;-73.582;2023-07-16T06:19:23;100417.16;;;27.18;58.05
79006;BME280;69202;45.498;-73.582;2023-07-16T06:21:49;100455.22;;;27.48;57.43
79006;BME280;69202;45.498;-73.582;2023-07-16T06:24:15;100428.06;;;27.37;57.70
79006;BME280;69202;45.498;-73.582;2023-07-16T06:26:41;100387.91;;;27.12;58.09
79006;BME280;69202;45.498;-73.582;2023-07-16T06:29:07;100404.63;;;27.20;58.36
79006;BME280;69202;45.498;-73.582;2023-07-16T06:31:33;100415.53;;;27.17;59.03
79006;BME280;69202;45.498;-73.582;2023-07-16T06:33:59;100431.41;;;27.25;59.69
79006;BME280;69202;45.498;-73.582;2023-07-16T06:36:25;100420.75;;;27.18;59.07
79006;BME280;69202;45.498;-73.582;2023-07-16T06:38:51;100259.00;;;26.19;59.57
79006;BME280;69202;45.498;-73.582;2023-07-16T06:41:18;100425.69;;;27.21;60.08
79006;BME280;69202;45.498;-73.582;2023-07-16T06:43:44;100387.72;;;27.08;59.78
79006;BME280;69202;45.498;-73.582;2023-07-16T06:46:10;100401.69;;;27.25;59.80
79006;BME280;69202;45.498;-73.582;2023-07-16T06:48:35;100308.16;;;26.72;60.00
79006;BME280;69202;45.498;-73.582;2023-07-16T06:51:01;100226.97;;;26.27;60.49
79006;BME280;69202;45.498;-73.582;2023-07-16T06:53:27;100385.31;;;27.15;59.95
79006;BME280;69202;45.498;-73.582;2023-07-16T06:55:53;100267.72;;;26.49;60.32
79006;BME280;69202;45.498;-73.582;2023-07-16T06:58:20;100397.94;;;27.30;60.38
79006;BME280;69202;45.498;-73.582;2023-07-16T07:00:49;100403.66;;;27.25;60.22
79006;BME280;69202;45.498;-73.582;2023-07-16T07:03:15;100399.63;;;27.31;60.43
79006;BME280;69202;45.498;-73.582;2023-07-16T07:05:41;100391.09;;;27.27;60.51
79006;BME280;69202;45.498;-73.582;2023-07-16T07:08:07;100323.94;;;26.94;60.64
79006;BME280;69202;45.498;-73.582;2023-07-16T07:10:33;100395.88;;;27.36;60.37
79006;BME280;69202;45.498;-73.582;2023-07-16T07:13:02;100398.28;;;27.28;60.77
79006;BME280;69202;45.498;-73.582;2023-07-16T07:15:28;100379.00;;;27.23;60.62
79006;BME280;69202;45.498;-73.582;2023-07-16T07:17:54;100314.25;;;26.83;60.53
79006;BME280;69202;45.498;-73.582;2023-07-16T07:20:20;100354.28;;;27.13;60.57
79006;BME280;69202;45.498;-73.582;2023-07-16T07:22:46;100138.19;;;25.87;60.93
79006;BME280;69202;45.498;-73.582;2023-07-16T07:25:12;100318.22;;;26.91;61.39
79006;BME280;69202;45.498;-73.582;2023-07-16T07:27:38;100214.03;;;26.23;60.84
79006;BME280;69202;45.498;-73.582;2023-07-16T07:30:04;100287.28;;;26.75;61.28
79006;BME280;69202;45.498;-73.582;2023-07-16T07:32:30;100235.13;;;26.32;61.10
79006;BME280;69202;45.498;-73.582;2023-07-16T07:34:56;100292.88;;;26.84;61.52
79006;BME280;69202;45.498;-73.582;2023-07-16T07:37:22;100356.72;;;27.15;61.79
79006;BME280;69202;45.498;-73.582;2023-07-16T07:39:54;100357.72;;;27.10;61.35
79006;BME280;69202;45.498;-73.582;2023-07-16T07:42:20;100206.19;;;26.16;61.75
79006;BME280;69202;45.498;-73.582;2023-07-16T07:44:46;100278.19;;;26.52;61.79
79006;BME280;69202;45.498;-73.582;2023-07-16T07:47:12;100294.34;;;26.81;61.85
79006;BME280;69202;45.498;-73.582;2023-07-16T07:49:38;100194.22;;;26.07;62.22
79006;BME280;69202;45.498;-73.582;2023-07-16T07:52:04;100197.81;;;26.07;62.15
79006;BME280;69202;45.498;-73.582;2023-07-16T07:54:31;100178.78;;;25.92;62.18
79006;BME280;69202;45.498;-73.582;2023-07-16T07:57:01;100332.09;;;26.91;62.35
79006;BME280;69202;45.498;-73.582;2023-07-16T07:59:31;100256.97;;;26.48;62.72
79006;BME280;69202;45.498;-73.582;2023-07-16T08:01:58;100314.91;;;26.80;62.15
79006;BME280;69202;45.498;-73.582;2023-07-16T08:04:24;100299.41;;;26.57;62.80
79006;BME280;69202;45.498;-73.582;2023-07-16T08:06:52;100285.84;;;26.33;63.48
79006;BME280;69202;45.498;-73.582;2023-07-16T08:09:18;100284.34;;;26.27;63.29
79006;BME280;69202;45.498;-73.582;2023-07-16T08:11:44;100322.69;;;26.47;63.63
79006;BME280;69202;45.498;-73.582;2023-07-16T08:14:10;100184.59;;;25.68;63.94
79006;BME280;69202;45.498;-73.582;2023-07-16T08:16:36;100301.81;;;26.50;63.50
79006;BME280;69202;45.498;-73.582;2023-07-16T08:19:02;100194.41;;;25.88;63.29
79006;BME280;69202;45.498;-73.582;2023-07-16T08:21:28;100306.47;;;26.63;63.11
79006;BME280;69202;45.498;-73.582;2023-07-16T08:23:54;100279.91;;;26.26;63.66
79006;BME280;69202;45.498;-73.582;2023-07-16T08:26:20;100258.59;;;26.26;63.55
79006;BME280;69202;45.498;-73.582;2023-07-16T08:28:46;100295.78;;;26.48;63.62
79006;BME280;69202;45.498;-73.582;2023-07-16T08:31:12;100118.31;;;25.49;63.83
79006;BME280;69202;45.498;-73.582;2023-07-16T08:33:40;100166.78;;;25.74;63.71
79006;BME280;69202;45.498;-73.582;2023-07-16T08:36:06;100206.28;;;25.88;64.03
79006;BME280;69202;45.498;-73.582;2023-07-16T08:38:32;100243.88;;;26.26;63.92
79006;BME280;69202;45.498;-73.582;2023-07-16T08:41:00;100069.75;;;25.07;64.03
79006;BME280;69202;45.498;-73.582;2023-07-16T08:43:28;100236.41;;;26.26;63.87
79006;BME280;69202;45.498;-73.582;2023-07-16T08:45:55;100235.78;;;26.29;63.64
79006;BME280;69202;45.498;-73.582;2023-07-16T08:48:22;100256.75;;;26.44;63.50
79006;BME280;69202;45.498;-73.582;2023-07-16T08:50:49;100147.06;;;25.76;63.42
79006;BME280;69202;45.498;-73.582;2023-07-16T08:53:16;100261.97;;;26.45;63.39
79006;BME280;69202;45.498;-73.582;2023-07-16T08:55:44;100065.94;;;25.17;63.29
79006;BME280;69202;45.498;-73.582;2023-07-16T08:58:13;100277.47;;;26.46;63.08
79006;BME280;69202;45.498;-73.582;2023-07-16T09:00:44;100198.34;;;26.18;62.75
79006;BME280;69202;45.498;-73.582;2023-07-16T09:03:17;100166.22;;;25.95;62.54
79006;BME280;69202;45.498;-73.582;2023-07-16T09:05:44;100242.53;;;26.37;62.74
79006;BME280;69202;45.498;-73.582;2023-07-16T09:08:11;100284.78;;;26.65;62.48
79006;BME280;69202;45.498;-73.582;2023-07-16T09:10:42;99993.47;;;24.92;62.37
79006;BME280;69202;45.498;-73.582;2023-07-16T09:13:09;100093.88;;;25.51;62.26
79006;BME280;69202;45.498;-73.582;2023-07-16T09:15:35;100107.00;;;25.59;62.50
79006;BME280;69202;45.498;-73.582;2023-07-16T09:18:01;100245.00;;;26.38;62.28
79006;BME280;69202;45.498;-73.582;2023-07-16T09:20:28;100108.66;;;25.24;62.29
79006;BME280;69202;45.498;-73.582;2023-07-16T09:22:57;99995.69;;;24.90;62.34
79006;BME280;69202;45.498;-73.582;2023-07-16T09:25:30;100161.41;;;25.78;62.88
79006;BME280;69202;45.498;-73.582;2023-07-16T09:28:02;100195.41;;;25.92;62.86
79006;BME280;69202;45.498;-73.582;2023-07-16T09:30:33;100271.44;;;26.44;63.32
79006;BME280;69202;45.498;-73.582;2023-07-16T09:33:10;100082.41;;;25.22;63.27
79006;BME280;69202;45.498;-73.582;2023-07-16T09:35:37;100083.25;;;25.22;63.39
79006;BME280;69202;45.498;-73.582;2023-07-16T09:38:04;100131.75;;;25.42;63.22
79006;BME280;69202;45.498;-73.582;2023-07-16T09:40:30;100096.25;;;25.22;62.83
79006;BME280;69202;45.498;-73.582;2023-07-16T09:42:56;100178.28;;;25.90;63.05
79006;BME280;69202;45.498;-73.582;2023-07-16T09:45:23;100273.44;;;26.53;63.50
79006;BME280;69202;45.498;-73.582;2023-07-16T09:47:48;100095.78;;;25.42;63.30
79006;BME280;69202;45.498;-73.582;2023-07-16T09:50:15;100159.16;;;25.66;63.63
79006;BME280;69202;45.498;-73.582;2023-07-16T09:52:41;100251.09;;;26.27;63.98
79006;BME280;69202;45.498;-73.582;2023-07-16T09:55:09;100211.41;;;25.95;64.09
79006;BME280;69202;45.498;-73.582;2023-07-16T09:57:38;100277.78;;;26.23;64.36
79006;BME280;69202;45.498;-73.582;2023-07-16T10:00:09;100252.91;;;26.09;64.32
79006;BME280;69202;45.498;-73.582;2023-07-16T10:02:40;100290.50;;;26.37;64.22
79006;BME280;69202;45.498;-73.582;2023-07-16T10:05:16;100260.72;;;26.29;63.95
79006;BME280;69202;45.498;-73.582;2023-07-16T10:07:43;100247.03;;;26.33;63.89
79006;BME280;69202;45.498;-73.582;2023-07-16T10:10:15;100236.25;;;26.31;63.88
79006;BME280;69202;45.498;-73.582;2023-07-16T10:12:54;100223.38;;;26.27;64.25
79006;BME280;69202;45.498;-73.582;2023-07-16T10:15:28;100044.28;;;25.32;64.03
79006;BME280;69202;45.498;-73.582;2023-07-16T10:17:54;100166.81;;;26.05;64.31
79006;BME280;69202;45.498;-73.582;2023-07-16T10:20:33;100247.81;;;26.47;64.27
79006;BME280;69202;45.498;-73.582;2023-07-16T10:23:10;100261.38;;;26.49;64.01
79006;BME280;69202;45.498;-73.582;2023-07-16T10:25:38;100153.22;;;25.95;64.23
79006;BME280;69202;45.498;-73.582;2023-07-16T10:28:04;100227.72;;;26.41;64.09
79006;BME280;69202;45.498;-73.582;2023-07-16T10:30:31;100110.25;;;25.75;63.93
79006;BME280;69202;45.498;-73.582;2023-07-16T10:32:57;100042.50;;;25.37;63.95
79006;BME280;69202;45.498;-73.582;2023-07-16T10:35:23;100206.50;;;26.37;63.98
79006;BME280;69202;45.498;-73.582;2023-07-16T10:37:50;100189.09;;;26.23;64.03
79006;BME280;69202;45.498;-73.582;2023-07-16T10:40:16;100029.16;;;25.16;64.18
79006;BME280;69202;45.498;-73.582;2023-07-16T10:42:42;100078.41;;;25.50;63.88
79006;BME280;69202;45.498;-73.582;2023-07-16T10:45:09;100206.50;;;26.37;63.78
79006;BME280;69202;45.498;-73.582;2023-07-16T10:47:51;100165.97;;;26.05;63.66
79006;BME280;69202;45.498;-73.582;2023-07-16T10:50:19;100233.59;;;26.40;63.15
79006;BME280;69202;45.498;-73.582;2023-07-16T10:52:46;100249.13;;;26.50;63.05
79006;BME280;69202;45.498;-73.582;2023-07-16T10:55:11;100240.19;;;26.30;61.47
79006;BME280;69202;45.498;-73.582;2023-07-16T10:57:37;100101.84;;;25.44;61.20
79006;BME280;69202;45.498;-73.582;2023-07-16T11:00:04;100310.22;;;26.67;61.39
79006;BME280;69202;45.498;-73.582;2023-07-16T11:02:30;100317.75;;;26.66;61.83
79006;BME280;69202;45.498;-73.582;2023-07-16T11:04:56;100272.94;;;26.28;63.86
79006;BME280;69202;45.498;-73.582;2023-07-16T11:07:23;100203.78;;;25.65;64.84
79006;BME280;69202;45.498;-73.582;2023-07-16T11:09:51;100337.44;;;26.20;65.96
79006;BME280;69202;45.498;-73.582;2023-07-16T11:12:20;100339.13;;;25.94;66.55
79006;BME280;69202;45.498;-73.582;2023-07-16T11:14:48;100307.16;;;25.74;67.32
79006;BME280;69202;45.498;-73.582;2023-07-16T11:17:15;100310.84;;;25.83;67.49
79006;BME280;69202;45.498;-73.582;2023-07-16T11:19:45;100284.00;;;25.56;67.70
79006;BME280;69202;45.498;-73.582;2023-07-16T11:22:11;100121.03;;;24.50;67.00
79006;BME280;69202;45.498;-73.582;2023-07-16T11:27:03;100209.22;;;24.92;67.34
79006;BME280;69202;45.498;-73.582;2023-07-16T11:29:34;100043.13;;;23.74;67.32
79006;BME280;69202;45.498;-73.582;2023-07-16T11:32:02;100295.59;;;25.30;68.66
79006;BME280;69202;45.498;-73.582;2023-07-16T11:34:28;100151.72;;;24.34;69.21
79006;BME280;69202;45.498;-73.582;2023-07-16T11:36:54;100253.44;;;24.79;70.43
79006;BME280;69202;45.498;-73.582;2023-07-16T11:39:20;100253.59;;;24.55;70.58
79006;BME280;69202;45.498;-73.582;2023-07-16T11:41:55;100009.31;;;22.98;70.98
79006;BME280;69202;45.498;-73.582;2023-07-16T11:44:21;100312.09;;;24.62;71.68
79006;BME280;69202;45.498;-73.582;2023-07-16T11:46:47;100116.19;;;23.44;72.21
79006;BME280;69202;45.498;-73.582;2023-07-16T11:49:13;100249.25;;;24.16;72.65
79006;BME280;69202;45.498;-73.582;2023-07-16T11:51:39;100269.66;;;24.20;72.96
79006;BME280;69202;45.498;-73.582;2023-07-16T11:54:05;100291.59;;;24.30;72.95
79006;BME280;69202;45.498;-73.582;2023-07-16T11:56:31;100293.09;;;24.23;72.83
79006;BME280;69202;45.498;-73.582;2023-07-16T11:58:57;100279.06;;;24.19;73.08
79006;BME280;69202;45.498;-73.582;2023-07-16T12:01:23;100269.19;;;24.13;73.68
79006;BME280;69202;45.498;-73.582;2023-07-16T12:03:49;100203.09;;;23.46;73.83
79006;BME280;69202;45.498;-73.582;2023-07-16T12:06:15;100279.75;;;24.11;74.01
79006;BME280;69202;45.498;-73.582;2023-07-16T12:08:40;100166.97;;;23.43;74.25
79006;BME280;69202;45.498;-73.582;2023-07-16T12:11:06;100079.31;;;22.78;74.21
79006;BME280;69202;45.498;-73.582;2023-07-16T12:13:32;100153.72;;;23.26;74.45
79006;BME280;69202;45.498;-73.582;2023-07-16T12:15:58;100286.59;;;23.95;74.26
79006;BME280;69202;45.498;-73.582;2023-07-16T12:18:24;100280.66;;;23.87;74.15
79006;BME280;69202;45.498;-73.582;2023-07-16T12:20:50;100335.50;;;24.13;74.23
79006;BME280;69202;45.498;-73.582;2023-07-16T12:23:16;100291.31;;;23.94;74.22
79006;BME280;69202;45.498;-73.582;2023-07-16T12:25:42;100312.88;;;24.11;74.60
79006;BME280;69202;45.498;-73.582;2023-07-16T12:28:08;100334.97;;;24.30;74.21
79006;BME280;69202;45.498;-73.582;2023-07-16T12:30:35;100273.91;;;23.94;74.17
79006;BME280;69202;45.498;-73.582;2023-07-16T12:33:01;100190.25;;;23.37;74.05